sensor_id;sensor_type;location;lat;lon;timestamp;pressure;altitude;pressure_sealevel;temperature;humidity
68891;BME280;55932;48.702;8.884;2023-02-04T00:00:52;97350;;;6.1;77
68891;BME280;55932;48.702;8.884;2023-02-04T00:03:23;97350;;;6.1;77
68891;BME280;55932;48.702;8.884;2023-02-04T00:05:53;97360;;;6.1;77
68891;BME280;55932;48.702;8.884;2023-02-04T00:08:24;97360;;;6.1;77
68891;BME280;55932;48.702;8.884;2023-02-04T00:11:05;97370;;;6.1;77
68891;BME280;55932;48.702;8.884;2023-02-04T00:13:36;97360;;;6.1;77
68891;BME280;55932;48.702;8.884;2023-02-04T00:16:06;97360;;;6.1;77
68891;BME280;55932;48.702;8.884;2023-02-04T00:18:36;97360;;;6.1;76.5
68891;BME280;55932;48.702;8.884;2023-02-04T00:28:26;97350;;;6;77
68891;BME280;55932;48.702;8.884;2023-02-04T00:30:57;97350;;;6.1;77
68891;BME280;55932;48.702;8.884;2023-02-04T00:33:27;97350;;;6.1;77
68891;BME280;55932;48.702;8.884;2023-02-04T00:35:58;97340;;;6;77
68891;BME280;55932;48.702;8.884;2023-02-04T00:41:10;97340;;;6;77
68891;BME280;55932;48.702;8.884;2023-02-04T00:43:40;97350;;;6;77
68891;BME280;55932;48.702;8.884;2023-02-04T00:46:10;97360;;;6;77
68891;BME280;55932;48.702;8.884;2023-02-04T00:48:40;97360;;;6;77
68891;BME280;55932;48.702;8.884;2023-02-04T00:56:33;97350;;;6.1;77
68891;BME280;55932;48.702;8.884;2023-02-04T00:59:03;97350;;;6.1;76.5
68891;BME280;55932;48.702;8.884;2023-02-04T01:03:43;97370;;;6.2;76.5
68891;BME280;55932;48.702;8.884;2023-02-04T01:08:53;97370;;;6.2;76.5
68891;BME280;55932;48.702;8.884;2023-02-04T01:11:14;97370;;;6.2;76.5
68891;BME280;55932;48.702;8.884;2023-02-04T01:13:44;97370;;;6.1;76.5
68891;BME280;55932;48.702;8.884;2023-02-04T01:16:23;97370;;;6.1;77
68891;BME280;55932;48.702;8.884;2023-02-04T01:21:25;97370;;;6.1;77
68891;BME280;55932;48.702;8.884;2023-02-04T01:26:35;97370;;;6.1;77
68891;BME280;55932;48.702;8.884;2023-02-04T01:29:06;97370;;;6.1;77
68891;BME280;55932;48.702;8.884;2023-02-04T01:33:47;97370;;;6.1;77
68891;BME280;55932;48.702;8.884;2023-02-04T01:36:17;97380;;;6.2;76.5
68891;BME280;55932;48.702;8.884;2023-02-04T01:38:47;97370;;;6.2;77
68891;BME280;55932;48.702;8.884;2023-02-04T01:46:07;97380;;;6.2;77
68891;BME280;55932;48.702;8.884;2023-02-04T01:48:37;97380;;;6.2;77
68891;BME280;55932;48.702;8.884;2023-02-04T01:51:09;97370;;;6.1;77
68891;BME280;55932;48.702;8.884;2023-02-04T01:53:38;97370;;;6.2;77
68891;BME280;55932;48.702;8.884;2023-02-04T01:56:22;97370;;;6.1;77
68891;BME280;55932;48.702;8.884;2023-02-04T02:01:37;97380;;;6.1;77
68891;BME280;55932;48.702;8.884;2023-02-04T02:03:51;97370;;;6.2;77
68891;BME280;55932;48.702;8.884;2023-02-04T02:06:21;97370;;;6.3;76.5
68891;BME280;55932;48.702;8.884;2023-02-04T02:08:51;97380;;;6.3;76.5
68891;BME280;55932;48.702;8.884;2023-02-04T02:11:30;97380;;;6.3;77
68891;BME280;55932;48.702;8.884;2023-02-04T02:14:00;97380;;;6.3;77
68891;BME280;55932;48.702;8.884;2023-02-04T02:16:21;97370;;;6.3;76.5
68891;BME280;55932;48.702;8.884;2023-02-04T02:18:51;97370;;;6.3;77
68891;BME280;55932;48.702;8.884;2023-02-04T02:21:25;97370;;;6.3;77
68891;BME280;55932;48.702;8.884;2023-02-04T02:23:53;97380;;;6.3;77
68891;BME280;55932;48.702;8.884;2023-02-04T02:28:50;97390;;;6.2;77
68891;BME280;55932;48.702;8.884;2023-02-04T02:31:21;97390;;;6.1;77
68891;BME280;55932;48.702;8.884;2023-02-04T02:33:52;97390;;;5.9;77
68891;BME280;55932;48.702;8.884;2023-02-04T02:43:55;97390;;;5.9;77
68891;BME280;55932;48.702;8.884;2023-02-04T02:46:26;97400;;;5.9;77
68891;BME280;55932;48.702;8.884;2023-02-04T02:48:57;97410;;;5.8;77
68891;BME280;55932;48.702;8.884;2023-02-04T02:51:28;97410;;;5.8;77
68891;BME280;55932;48.702;8.884;2023-02-04T02:54:22;97420;;;5.8;77
68891;BME280;55932;48.702;8.884;2023-02-04T03:08:47;97420;;;5.7;77
68891;BME280;55932;48.702;8.884;2023-02-04T03:11:17;97430;;;5.7;77
68891;BME280;55932;48.702;8.884;2023-02-04T03:13:49;97430;;;5.7;77
68891;BME280;55932;48.702;8.884;2023-02-04T03:16:19;97430;;;5.6;77
68891;BME280;55932;48.702;8.884;2023-02-04T03:21:20;97420;;;5.7;76.5
68891;BME280;55932;48.702;8.884;2023-02-04T03:26:28;97430;;;5.8;76.5
68891;BME280;55932;48.702;8.884;2023-02-04T03:28:59;97430;;;5.8;76.5
68891;BME280;55932;48.702;8.884;2023-02-04T03:31:30;97430;;;5.8;77
68891;BME280;55932;48.702;8.884;2023-02-04T03:33:54;97430;;;5.8;76.5
68891;BME280;55932;48.702;8.884;2023-02-04T03:36:25;97430;;;5.9;76.5
68891;BME280;55932;48.702;8.884;2023-02-04T03:39:11;97440;;;5.9;76.5
68891;BME280;55932;48.702;8.884;2023-02-04T03:41:27;97450;;;6;76.5
68891;BME280;55932;48.702;8.884;2023-02-04T03:51:30;97470;;;6.1;76.5
68891;BME280;55932;48.702;8.884;2023-02-04T03:54:00;97470;;;6.1;76.5
68891;BME280;55932;48.702;8.884;2023-02-04T03:59:08;97490;;;6.1;76.5
68891;BME280;55932;48.702;8.884;2023-02-04T04:01:41;97500;;;5.9;77
68891;BME280;55932;48.702;8.884;2023-02-04T04:04:10;97500;;;5.8;77
68891;BME280;55932;48.702;8.884;2023-02-04T04:06:41;97500;;;5.6;77
68891;BME280;55932;48.702;8.884;2023-02-04T04:09:12;97500;;;5.6;77
68891;BME280;55932;48.702;8.884;2023-02-04T04:11:43;97500;;;5.5;77
68891;BME280;55932;48.702;8.884;2023-02-04T04:14:14;97500;;;5.4;77
68891;BME280;55932;48.702;8.884;2023-02-04T04:16:51;97510;;;5.4;77
68891;BME280;55932;48.702;8.884;2023-02-04T04:21:47;97520;;;5.3;77
68891;BME280;55932;48.702;8.884;2023-02-04T04:24:18;97520;;;5.2;77
68891;BME280;55932;48.702;8.884;2023-02-04T04:26:49;97530;;;5.2;77
68891;BME280;55932;48.702;8.884;2023-02-04T04:29:26;97520;;;5.2;77
68891;BME280;55932;48.702;8.884;2023-02-04T04:31:51;97520;;;5.2;77
68891;BME280;55932;48.702;8.884;2023-02-04T04:34:22;97520;;;5.2;77
68891;BME280;55932;48.702;8.884;2023-02-04T04:36:46;97520;;;5.2;77
68891;BME280;55932;48.702;8.884;2023-02-04T04:39:17;97520;;;5.2;77
68891;BME280;55932;48.702;8.884;2023-02-04T04:46:49;97530;;;5.1;77
68891;BME280;55932;48.702;8.884;2023-02-04T04:49:20;97530;;;5.1;77
68891;BME280;55932;48.702;8.884;2023-02-04T04:51:50;97530;;;5.1;77
68891;BME280;55932;48.702;8.884;2023-02-04T04:54:22;97530;;;5.1;77
68891;BME280;55932;48.702;8.884;2023-02-04T04:56:56;97530;;;5.1;77
68891;BME280;55932;48.702;8.884;2023-02-04T04:59:42;97530;;;5.1;77
68891;BME280;55932;48.702;8.884;2023-02-04T05:02:00;97520;;;5;77
68891;BME280;55932;48.702;8.884;2023-02-04T05:04:32;97530;;;5;77
68891;BME280;55932;48.702;8.884;2023-02-04T05:06:55;97530;;;4.9;77
68891;BME280;55932;48.702;8.884;2023-02-04T05:14:28;97530;;;4.9;77
68891;BME280;55932;48.702;8.884;2023-02-04T05:16:58;97540;;;4.9;77
68891;BME280;55932;48.702;8.884;2023-02-04T05:19:29;97530;;;4.9;77
68891;BME280;55932;48.702;8.884;2023-02-04T05:22:00;97530;;;4.9;77
68891;BME280;55932;48.702;8.884;2023-02-04T05:24:31;97530;;;4.8;77
68891;BME280;55932;48.702;8.884;2023-02-04T05:27:08;97530;;;4.9;77
68891;BME280;55932;48.702;8.884;2023-02-04T05:29:39;97540;;;4.9;77
68891;BME280;55932;48.702;8.884;2023-02-04T05:32:10;97540;;;4.9;77
68891;BME280;55932;48.702;8.884;2023-02-04T05:34:34;97530;;;4.9;77
68891;BME280;55932;48.702;8.884;2023-02-04T05:37:05;97530;;;5;77
68891;BME280;55932;48.702;8.884;2023-02-04T05:44:41;97560;;;5;76.5
68891;BME280;55932;48.702;8.884;2023-02-04T05:54:40;97550;;;5.1;76.5
68891;BME280;55932;48.702;8.884;2023-02-04T05:57:11;97550;;;5.1;76.5
68891;BME280;55932;48.702;8.884;2023-02-04T06:02:25;97550;;;5;76.5
68891;BME280;55932;48.702;8.884;2023-02-04T06:04:56;97560;;;5;76.5
68891;BME280;55932;48.702;8.884;2023-02-04T06:07:25;97570;;;5;76.5
68891;BME280;55932;48.702;8.884;2023-02-04T06:09:56;97560;;;5;76.5
68891;BME280;55932;48.702;8.884;2023-02-04T06:12:27;97570;;;4.9;76.5
68891;BME280;55932;48.702;8.884;2023-02-04T06:14:57;97580;;;4.9;77
68891;BME280;55932;48.702;8.884;2023-02-04T06:17:20;97570;;;4.9;76.5
68891;BME280;55932;48.702;8.884;2023-02-04T06:19:58;97570;;;4.9;76.5
68891;BME280;55932;48.702;8.884;2023-02-04T06:22:29;97580;;;4.9;76.5
68891;BME280;55932;48.702;8.884;2023-02-04T06:24:53;97590;;;4.9;76.5
68891;BME280;55932;48.702;8.884;2023-02-04T06:29:48;97600;;;5;76.5
68891;BME280;55932;48.702;8.884;2023-02-04T06:32:19;97600;;;5.1;76.5
68891;BME280;55932;48.702;8.884;2023-02-04T06:34:49;97600;;;5;76.5
68891;BME280;55932;48.702;8.884;2023-02-04T06:37:20;97600;;;5;76.5
68891;BME280;55932;48.702;8.884;2023-02-04T06:39:51;97610;;;5;76.5
68891;BME280;55932;48.702;8.884;2023-02-04T06:42:22;97620;;;5;76.5
68891;BME280;55932;48.702;8.884;2023-02-04T06:49:54;97630;;;5;76.5
68891;BME280;55932;48.702;8.884;2023-02-04T06:52:26;97630;;;5.1;76
68891;BME280;55932;48.702;8.884;2023-02-04T06:57:32;97630;;;5;76.5
68891;BME280;55932;48.702;8.884;2023-02-04T07:00:04;97640;;;5;76.5
68891;BME280;55932;48.702;8.884;2023-02-04T07:02:34;97640;;;5;76.5
68891;BME280;55932;48.702;8.884;2023-02-04T07:04:59;97640;;;4.9;76.5
68891;BME280;55932;48.702;8.884;2023-02-04T07:07:29;97640;;;4.9;76.5
68891;BME280;55932;48.702;8.884;2023-02-04T07:10:00;97650;;;4.9;76.5
68891;BME280;55932;48.702;8.884;2023-02-04T07:20:03;97650;;;5;76.5
68891;BME280;55932;48.702;8.884;2023-02-04T07:22:34;97660;;;5;76.5
68891;BME280;55932;48.702;8.884;2023-02-04T07:25:31;97660;;;5;76.5
68891;BME280;55932;48.702;8.884;2023-02-04T07:27:48;97650;;;4.9;76.5
68891;BME280;55932;48.702;8.884;2023-02-04T07:32:42;97660;;;5;76.5
68891;BME280;55932;48.702;8.884;2023-02-04T07:35:13;97670;;;5;76.5
68891;BME280;55932;48.702;8.884;2023-02-04T07:37:44;97680;;;5.1;76
68891;BME280;55932;48.702;8.884;2023-02-04T07:40:09;97680;;;5.1;76
68891;BME280;55932;48.702;8.884;2023-02-04T07:45:10;97690;;;5.1;76.5
68891;BME280;55932;48.702;8.884;2023-02-04T07:47:40;97680;;;5.2;76
68891;BME280;55932;48.702;8.884;2023-02-04T07:50:11;97690;;;5.1;76
68891;BME280;55932;48.702;8.884;2023-02-04T07:57:43;97690;;;5.3;76
68891;BME280;55932;48.702;8.884;2023-02-04T08:00:28;97690;;;5.4;76
68891;BME280;55932;48.702;8.884;2023-02-04T08:02:58;97700;;;5.4;76
68891;BME280;55932;48.702;8.884;2023-02-04T08:05:27;97700;;;5.4;76
68891;BME280;55932;48.702;8.884;2023-02-04T08:07:59;97690;;;5.4;76
68891;BME280;55932;48.702;8.884;2023-02-04T08:10:29;97690;;;5.4;76
68891;BME280;55932;48.702;8.884;2023-02-04T08:12:54;97690;;;5.5;75.5
68891;BME280;55932;48.702;8.884;2023-02-04T08:15:25;97700;;;5.5;76
68891;BME280;55932;48.702;8.884;2023-02-04T08:20:19;97710;;;5.6;75.5
68891;BME280;55932;48.702;8.884;2023-02-04T08:22:51;97720;;;5.6;75.5
68891;BME280;55932;48.702;8.884;2023-02-04T08:25:21;97720;;;5.5;76
68891;BME280;55932;48.702;8.884;2023-02-04T08:27:52;97720;;;5.5;76
68891;BME280;55932;48.702;8.884;2023-02-04T08:37:55;97740;;;5.8;76
68891;BME280;55932;48.702;8.884;2023-02-04T08:40:39;97740;;;5.8;76
68891;BME280;55932;48.702;8.884;2023-02-04T08:43:09;97740;;;5.9;76
68891;BME280;55932;48.702;8.884;2023-02-04T08:45:33;97730;;;6;75.5
68891;BME280;55932;48.702;8.884;2023-02-04T08:48:03;97730;;;6.2;75.5
68891;BME280;55932;48.702;8.884;2023-02-04T08:50:34;97740;;;6.3;75.5
68891;BME280;55932;48.702;8.884;2023-02-04T08:53:12;97740;;;6.4;75.5
68891;BME280;55932;48.702;8.884;2023-02-04T08:55:43;97730;;;6.6;75
68891;BME280;55932;48.702;8.884;2023-02-04T09:00:40;97750;;;7;75
68891;BME280;55932;48.702;8.884;2023-02-04T09:03:10;97750;;;7;75
68891;BME280;55932;48.702;8.884;2023-02-04T09:05:42;97750;;;7.4;74.5
68891;BME280;55932;48.702;8.884;2023-02-04T09:08:14;97760;;;7.3;75
68891;BME280;55932;48.702;8.884;2023-02-04T09:10:42;97750;;;7.5;74.5
68891;BME280;55932;48.702;8.884;2023-02-04T09:13:13;97760;;;7.6;74.5
68891;BME280;55932;48.702;8.884;2023-02-04T09:15:44;97760;;;7.7;74.5
68891;BME280;55932;48.702;8.884;2023-02-04T09:18:15;97770;;;8.1;74
68891;BME280;55932;48.702;8.884;2023-02-04T09:20:47;97770;;;8.5;73.5
68891;BME280;55932;48.702;8.884;2023-02-04T09:23:23;97770;;;8.7;73.5
68891;BME280;55932;48.702;8.884;2023-02-04T09:28:18;97760;;;9.1;74.5
68891;BME280;55932;48.702;8.884;2023-02-04T09:33:27;97770;;;9.1;75
68891;BME280;55932;48.702;8.884;2023-02-04T09:36:10;97780;;;8.8;75.5
68891;BME280;55932;48.702;8.884;2023-02-04T09:38:27;97790;;;8.5;76
68891;BME280;55932;48.702;8.884;2023-02-04T09:41:00;97790;;;8.5;76
68891;BME280;55932;48.702;8.884;2023-02-04T09:43:28;97780;;;9;75.5
68891;BME280;55932;48.702;8.884;2023-02-04T09:45:58;97790;;;9.5;75.5
68891;BME280;55932;48.702;8.884;2023-02-04T09:50:52;97800;;;9.4;75.5
68891;BME280;55932;48.702;8.884;2023-02-04T09:53:23;97810;;;8.6;75.5
68891;BME280;55932;48.702;8.884;2023-02-04T09:56:00;97820;;;8;76.5
68891;BME280;55932;48.702;8.884;2023-02-04T10:03:32;97810;;;7.7;76
68891;BME280;55932;48.702;8.884;2023-02-04T10:06:03;97810;;;8;75.5
68891;BME280;55932;48.702;8.884;2023-02-04T10:11:04;97810;;;8.1;75.5
68891;BME280;55932;48.702;8.884;2023-02-04T10:13:30;97810;;;8;75.5
68891;BME280;55932;48.702;8.884;2023-02-04T10:15:58;97800;;;7.8;75.5
68891;BME280;55932;48.702;8.884;2023-02-04T10:18:32;97810;;;7.7;76
68891;BME280;55932;48.702;8.884;2023-02-04T10:21:11;97800;;;7.8;75.5
68891;BME280;55932;48.702;8.884;2023-02-04T10:23:44;97810;;;7.6;76
68891;BME280;55932;48.702;8.884;2023-02-04T10:26:14;97810;;;7.7;76
68891;BME280;55932;48.702;8.884;2023-02-04T10:28:34;97800;;;7.6;75.5
68891;BME280;55932;48.702;8.884;2023-02-04T10:31:02;97800;;;7.3;76.5
68891;BME280;55932;48.702;8.884;2023-02-04T10:33:32;97800;;;7.3;76
68891;BME280;55932;48.702;8.884;2023-02-04T10:36:04;97800;;;7.3;76
68891;BME280;55932;48.702;8.884;2023-02-04T10:40:59;97790;;;7.8;76
68891;BME280;55932;48.702;8.884;2023-02-04T10:43:29;97800;;;7.8;75.5
68891;BME280;55932;48.702;8.884;2023-02-04T10:51:02;97780;;;8.7;74.5
68891;BME280;55932;48.702;8.884;2023-02-04T10:53:32;97780;;;9.1;74.5
68891;BME280;55932;48.702;8.884;2023-02-04T10:56:04;97780;;;9;75.5
68891;BME280;55932;48.702;8.884;2023-02-04T10:58:38;97790;;;9.3;75
68891;BME280;55932;48.702;8.884;2023-02-04T11:01:08;97790;;;9.1;75.5
68891;BME280;55932;48.702;8.884;2023-02-04T11:03:36;97790;;;8.8;75.5
68891;BME280;55932;48.702;8.884;2023-02-04T11:06:09;97800;;;8.5;76
68891;BME280;55932;48.702;8.884;2023-02-04T11:08:44;97800;;;8.9;75
68891;BME280;55932;48.702;8.884;2023-02-04T11:11:15;97800;;;8.9;74.5
68891;BME280;55932;48.702;8.884;2023-02-04T11:16:31;97800;;;9.2;74.5
68891;BME280;55932;48.702;8.884;2023-02-04T11:18:43;97800;;;8.8;75.5
68891;BME280;55932;48.702;8.884;2023-02-04T11:26:14;97800;;;8.3;76.5
68891;BME280;55932;48.702;8.884;2023-02-04T11:28:45;97800;;;8.3;76
68891;BME280;55932;48.702;8.884;2023-02-04T11:31:38;97800;;;8.2;76
68891;BME280;55932;48.702;8.884;2023-02-04T11:36:22;97800;;;8.7;75
68891;BME280;55932;48.702;8.884;2023-02-04T11:38:53;97800;;;8.6;75.5
68891;BME280;55932;48.702;8.884;2023-02-04T11:41:25;97800;;;8.6;76
68891;BME280;55932;48.702;8.884;2023-02-04T11:46:22;97790;;;9.3;75
68891;BME280;55932;48.702;8.884;2023-02-04T11:56:22;97790;;;8.6;75.5
68891;BME280;55932;48.702;8.884;2023-02-04T11:58:54;97790;;;8.5;75.5
68891;BME280;55932;48.702;8.884;2023-02-04T12:01:24;97790;;;8.5;76.5
68891;BME280;55932;48.702;8.884;2023-02-04T12:03:56;97800;;;8.5;76.5
68891;BME280;55932;48.702;8.884;2023-02-04T12:06:32;97790;;;8.4;76.5
68891;BME280;55932;48.702;8.884;2023-02-04T12:09:06;97800;;;8.4;76.5
68891;BME280;55932;48.702;8.884;2023-02-04T12:13:58;97800;;;8.5;77
68891;BME280;55932;48.702;8.884;2023-02-04T12:16:28;97800;;;8.6;77
68891;BME280;55932;48.702;8.884;2023-02-04T12:24:01;97800;;;9.6;76.5
68891;BME280;55932;48.702;8.884;2023-02-04T12:26:31;97800;;;9.3;76.5
68891;BME280;55932;48.702;8.884;2023-02-04T12:29:02;97800;;;9.1;77.5
68891;BME280;55932;48.702;8.884;2023-02-04T12:34:09;97810;;;9.1;77
68891;BME280;55932;48.702;8.884;2023-02-04T12:36:40;97810;;;8.4;77
68891;BME280;55932;48.702;8.884;2023-02-04T12:41:35;97810;;;7.8;77
68891;BME280;55932;48.702;8.884;2023-02-04T12:44:06;97810;;;7.5;77
68891;BME280;55932;48.702;8.884;2023-02-04T12:51:38;97810;;;7.6;76.5
68891;BME280;55932;48.702;8.884;2023-02-04T12:54:09;97820;;;7.6;76.5
68891;BME280;55932;48.702;8.884;2023-02-04T12:56:40;97810;;;7.9;77
68891;BME280;55932;48.702;8.884;2023-02-04T12:59:18;97820;;;8.2;76.5
68891;BME280;55932;48.702;8.884;2023-02-04T13:01:48;97820;;;8.6;76
68891;BME280;55932;48.702;8.884;2023-02-04T13:06:43;97820;;;8.2;76.5
68891;BME280;55932;48.702;8.884;2023-02-04T13:09:14;97820;;;8.5;75.5
68891;BME280;55932;48.702;8.884;2023-02-04T13:11:45;97820;;;8.5;76
68891;BME280;55932;48.702;8.884;2023-02-04T13:19:17;97820;;;7.3;76.5
68891;BME280;55932;48.702;8.884;2023-02-04T13:21:48;97810;;;7.2;78.5
68891;BME280;55932;48.702;8.884;2023-02-04T13:26:56;97810;;;10.1;77
68891;BME280;55932;48.702;8.884;2023-02-04T13:29:27;97820;;;10.7;75.5
68891;BME280;55932;48.702;8.884;2023-02-04T13:31:58;97810;;;12.1;75
68891;BME280;55932;48.702;8.884;2023-02-04T13:34:22;97800;;;13.1;74.5
68891;BME280;55932;48.702;8.884;2023-02-04T13:36:53;97800;;;12.5;73
68891;BME280;55932;48.702;8.884;2023-02-04T13:39:23;97800;;;11.3;74.5
68891;BME280;55932;48.702;8.884;2023-02-04T13:46:56;97820;;;10.4;74.5
68891;BME280;55932;48.702;8.884;2023-02-04T13:49:26;97820;;;9.8;75.5
68891;BME280;55932;48.702;8.884;2023-02-04T13:57:05;97830;;;9;75.5
68891;BME280;55932;48.702;8.884;2023-02-04T13:59:36;97830;;;8.8;76
68891;BME280;55932;48.702;8.884;2023-02-04T14:02:16;97830;;;9.1;76
68891;BME280;55932;48.702;8.884;2023-02-04T14:09:45;97830;;;10.3;77
68891;BME280;55932;48.702;8.884;2023-02-04T14:12:15;97830;;;9.5;77
68891;BME280;55932;48.702;8.884;2023-02-04T14:14:45;97830;;;8.9;76.5
68891;BME280;55932;48.702;8.884;2023-02-04T14:17:15;97830;;;9.3;78.5
68891;BME280;55932;48.702;8.884;2023-02-04T14:19:45;97830;;;10.7;77.5
68891;BME280;55932;48.702;8.884;2023-02-04T14:22:10;97830;;;12;75
68891;BME280;55932;48.702;8.884;2023-02-04T14:24:47;97830;;;12.3;74
68891;BME280;55932;48.702;8.884;2023-02-04T14:29:43;97830;;;12.6;74.5
68891;BME280;55932;48.702;8.884;2023-02-04T14:34:51;97830;;;12.9;74
68891;BME280;55932;48.702;8.884;2023-02-04T14:37:22;97820;;;13;73
68891;BME280;55932;48.702;8.884;2023-02-04T14:42:15;97830;;;12.8;73
68891;BME280;55932;48.702;8.884;2023-02-04T14:44:46;97840;;;13.2;73
68891;BME280;55932;48.702;8.884;2023-02-04T14:47:17;97840;;;13.2;73
68891;BME280;55932;48.702;8.884;2023-02-04T14:52:25;97830;;;14.3;72.5
68891;BME280;55932;48.702;8.884;2023-02-04T14:55:01;97840;;;14.2;72.5
68891;BME280;55932;48.702;8.884;2023-02-04T14:57:32;97840;;;14.2;73
68891;BME280;55932;48.702;8.884;2023-02-04T15:02:19;97840;;;12.9;73
68891;BME280;55932;48.702;8.884;2023-02-04T15:04:50;97850;;;11.9;73
68891;BME280;55932;48.702;8.884;2023-02-04T15:07:21;97850;;;10.2;74
68891;BME280;55932;48.702;8.884;2023-02-04T15:09:52;97840;;;9.3;74
68891;BME280;55932;48.702;8.884;2023-02-04T15:12:15;97850;;;8.6;74
68891;BME280;55932;48.702;8.884;2023-02-04T15:19:48;97850;;;7.5;75
68891;BME280;55932;48.702;8.884;2023-02-04T15:22:20;97850;;;7.4;75
68891;BME280;55932;48.702;8.884;2023-02-04T15:24:49;97860;;;7.3;75
68891;BME280;55932;48.702;8.884;2023-02-04T15:27:20;97860;;;7.3;76
68891;BME280;55932;48.702;8.884;2023-02-04T15:29:58;97870;;;7.4;76.5
68891;BME280;55932;48.702;8.884;2023-02-04T15:32:28;97860;;;7.5;76.5
68891;BME280;55932;48.702;8.884;2023-02-04T15:34:59;97860;;;7.4;76.5
68891;BME280;55932;48.702;8.884;2023-02-04T15:37:23;97870;;;7.2;76.5
68891;BME280;55932;48.702;8.884;2023-02-04T15:39:54;97880;;;7;76
68891;BME280;55932;48.702;8.884;2023-02-04T15:47:26;97890;;;6.6;76.5
68891;BME280;55932;48.702;8.884;2023-02-04T15:49:57;97880;;;6.4;77
68891;BME280;55932;48.702;8.884;2023-02-04T15:52:28;97890;;;6.1;77
68891;BME280;55932;48.702;8.884;2023-02-04T15:54:59;97880;;;5.9;77
68891;BME280;55932;48.702;8.884;2023-02-04T15:57:36;97880;;;5.6;77.5
68891;BME280;55932;48.702;8.884;2023-02-04T16:00:14;97890;;;5.4;77.5
68891;BME280;55932;48.702;8.884;2023-02-04T16:02:38;97890;;;5.2;77.5
68891;BME280;55932;48.702;8.884;2023-02-04T16:05:07;97900;;;5;77.5
68891;BME280;55932;48.702;8.884;2023-02-04T16:07:33;97900;;;4.8;77.5
68891;BME280;55932;48.702;8.884;2023-02-04T16:15:05;97900;;;4.3;77.5
68891;BME280;55932;48.702;8.884;2023-02-04T16:17:43;97910;;;4.1;77.5
68891;BME280;55932;48.702;8.884;2023-02-04T16:20:07;97910;;;4;77.5
68891;BME280;55932;48.702;8.884;2023-02-04T16:22:44;97910;;;3.9;77
68891;BME280;55932;48.702;8.884;2023-02-04T16:25:15;97910;;;3.8;77
68891;BME280;55932;48.702;8.884;2023-02-04T16:30:10;97920;;;3.6;77
68891;BME280;55932;48.702;8.884;2023-02-04T16:32:41;97920;;;3.5;77
68891;BME280;55932;48.702;8.884;2023-02-04T16:35:11;97920;;;3.4;77
68891;BME280;55932;48.702;8.884;2023-02-04T16:37:42;97930;;;3.5;77
68891;BME280;55932;48.702;8.884;2023-02-04T16:45:15;97920;;;3.5;77.5
68891;BME280;55932;48.702;8.884;2023-02-04T16:47:45;97930;;;3.5;77.5
68891;BME280;55932;48.702;8.884;2023-02-04T16:50:42;97930;;;3.6;77.5
68891;BME280;55932;48.702;8.884;2023-02-04T16:53:00;97940;;;3.7;77.5
68891;BME280;55932;48.702;8.884;2023-02-04T16:55:30;97940;;;3.8;77.5
68891;BME280;55932;48.702;8.884;2023-02-04T17:00:37;97930;;;3.9;77.5
68891;BME280;55932;48.702;8.884;2023-02-04T17:02:55;97930;;;3.7;77.5
68891;BME280;55932;48.702;8.884;2023-02-04T17:05:26;97930;;;3.5;77.5
68891;BME280;55932;48.702;8.884;2023-02-04T17:08:04;97940;;;3.3;77.5
68891;BME280;55932;48.702;8.884;2023-02-04T17:15:36;97950;;;2.8;77.5
68891;BME280;55932;48.702;8.884;2023-02-04T17:18:06;97950;;;2.8;77.5
68891;BME280;55932;48.702;8.884;2023-02-04T17:23:00;97960;;;2.8;77
68891;BME280;55932;48.702;8.884;2023-02-04T17:25:31;97960;;;2.9;77
68891;BME280;55932;48.702;8.884;2023-02-04T17:28:02;97960;;;2.9;77
68891;BME280;55932;48.702;8.884;2023-02-04T17:35:28;97960;;;3.1;76.5
68891;BME280;55932;48.702;8.884;2023-02-04T17:37:59;97970;;;3;77
68891;BME280;55932;48.702;8.884;2023-02-04T17:40:29;97970;;;3.1;77
68891;BME280;55932;48.702;8.884;2023-02-04T17:43:00;97970;;;3.3;77
68891;BME280;55932;48.702;8.884;2023-02-04T17:45:31;97970;;;3.4;77
68891;BME280;55932;48.702;8.884;2023-02-04T17:48:01;97970;;;3.2;77
68891;BME280;55932;48.702;8.884;2023-02-04T17:50:32;97970;;;3;76.5
68891;BME280;55932;48.702;8.884;2023-02-04T17:53:03;97980;;;2.7;77
68891;BME280;55932;48.702;8.884;2023-02-04T17:55:34;97970;;;2.5;77
68891;BME280;55932;48.702;8.884;2023-02-04T18:05:37;97990;;;1.7;77
68891;BME280;55932;48.702;8.884;2023-02-04T18:08:15;97980;;;1.6;77
68891;BME280;55932;48.702;8.884;2023-02-04T18:10:46;97990;;;1.6;76.5
68891;BME280;55932;48.702;8.884;2023-02-04T18:13:20;97990;;;1.5;77
68891;BME280;55932;48.702;8.884;2023-02-04T18:18:27;97980;;;1.3;77
68891;BME280;55932;48.702;8.884;2023-02-04T18:20:42;97980;;;1.2;77.5
68891;BME280;55932;48.702;8.884;2023-02-04T18:28:15;97980;;;0.8;77.5
68891;BME280;55932;48.702;8.884;2023-02-04T18:30:54;97970;;;0.7;77.5
68891;BME280;55932;48.702;8.884;2023-02-04T18:33:18;97980;;;0.6;77
68891;BME280;55932;48.702;8.884;2023-02-04T18:35:47;97980;;;0.5;77.5
68891;BME280;55932;48.702;8.884;2023-02-04T18:38:32;97990;;;0.5;77.5
68891;BME280;55932;48.702;8.884;2023-02-04T18:43:34;97990;;;0.5;77.5
68891;BME280;55932;48.702;8.884;2023-02-04T18:46:03;97980;;;0.4;77
68891;BME280;55932;48.702;8.884;2023-02-04T18:48:45;97980;;;0.4;77
68891;BME280;55932;48.702;8.884;2023-02-04T18:50:56;97980;;;0.4;77
68891;BME280;55932;48.702;8.884;2023-02-04T18:53:27;97990;;;0.4;77
68891;BME280;55932;48.702;8.884;2023-02-04T18:55:58;97990;;;0.4;77
68891;BME280;55932;48.702;8.884;2023-02-04T18:58:36;97990;;;0.3;76.5
68891;BME280;55932;48.702;8.884;2023-02-04T19:03:32;97990;;;0.3;77
68891;BME280;55932;48.702;8.884;2023-02-04T19:06:02;97990;;;0.2;76.5
68891;BME280;55932;48.702;8.884;2023-02-04T19:08:41;97990;;;0.1;76.5
68891;BME280;55932;48.702;8.884;2023-02-04T19:11:04;97990;;;0.1;77
68891;BME280;55932;48.702;8.884;2023-02-04T19:13:36;97990;;;0.1;77
68891;BME280;55932;48.702;8.884;2023-02-04T19:16:21;98000;;;0.1;77
68891;BME280;55932;48.702;8.884;2023-02-04T19:18:36;97990;;;0;77
68891;BME280;55932;48.702;8.884;2023-02-04T19:21:12;97990;;;0;77.5
68891;BME280;55932;48.702;8.884;2023-02-04T19:23:37;97990;;;0;77.5
68891;BME280;55932;48.702;8.884;2023-02-04T19:31:10;97990;;;0;77
68891;BME280;55932;48.702;8.884;2023-02-04T19:36:34;98000;;;-0.1;77
68891;BME280;55932;48.702;8.884;2023-02-04T19:38:51;98000;;;-0.1;77
68891;BME280;55932;48.702;8.884;2023-02-04T19:41:23;98000;;;-0.1;77
68891;BME280;55932;48.702;8.884;2023-02-04T19:43:49;97990;;;-0.1;77
68891;BME280;55932;48.702;8.884;2023-02-04T19:51:25;98000;;;0;77
68891;BME280;55932;48.702;8.884;2023-02-04T19:53:46;98000;;;0;77